09 | 04 | 2020

Daten Vortag

Klimadaten von 10m Höhe gemessen, Station 

Datum / Zeit Intervall min Luftfeuchte % Temperatur °C absolut Luftdruck hPa Wind m/s Windbö m/s Richtung Relative Luftdruck hPa Taupunkt °C Windchill °C Niederschlag mm
08-04-2020 00:11 5 85 2.9 1032.6 0.0 0.0 NW 1033.2 0.6 2.9 0.0
08-04-2020 00:16 5 86 3.0 1032.5 0.0 0.0 NW 1033.1 0.9 3.0 0.0
08-04-2020 00:21 5 86 3.0 1032.6 0.0 0.0 NW 1033.2 0.9 3.0 0.0
08-04-2020 00:26 5 86 2.9 1032.6 0.0 0.0 NW 1033.2 0.8 2.9 0.0
08-04-2020 00:31 5 87 2.8 1032.6 0.0 0.0 NW 1033.2 0.9 2.8 0.0
08-04-2020 00:36 5 87 2.6 1032.5 0.0 0.0 NE 1033.1 0.7 2.6 0.0
08-04-2020 00:41 5 87 2.3 1032.6 0.0 0.0 NE 1033.2 0.4 2.3 0.0
08-04-2020 00:46 5 87 2.1 1032.6 0.0 0.0 N 1033.2 0.2 2.1 0.0
08-04-2020 00:51 5 87 2.0 1032.4 0.0 0.0 N 1033.0 0.1 2.0 0.0
08-04-2020 00:56 5 87 1.9 1032.4 0.0 0.0 N 1033.0 0.0 1.9 0.0
08-04-2020 01:01 5 87 1.9 1032.3 0.0 0.0 N 1032.9 0.0 1.9 0.0
08-04-2020 01:06 5 88 2.0 1032.4 0.0 0.0 N 1033.0 0.2 2.0 0.0
08-04-2020 01:11 5 88 2.0 1032.3 0.0 0.0 N 1032.9 0.2 2.0 0.0
08-04-2020 01:16 5 88 1.8 1032.3 0.0 0.0 S 1032.9 0.0 1.8 0.0
08-04-2020 01:21 5 88 1.9 1032.2 0.0 0.0 S 1032.8 0.1 1.9 0.0
08-04-2020 01:26 5 89 2.1 1032.2 0.0 0.0 S 1032.8 0.5 2.1 0.0
08-04-2020 01:31 5 89 2.0 1032.2 0.0 0.0 S 1032.8 0.4 2.0 0.0
08-04-2020 01:36 5 89 1.9 1032.2 0.0 0.0 NE 1032.8 0.3 1.9 0.0
08-04-2020 01:41 5 89 1.7 1032.2 0.0 0.0 NE 1032.8 0.1 1.7 0.0
08-04-2020 01:46 5 89 1.6 1032.1 0.0 0.0 N 1032.7 0.0 1.6 0.0
08-04-2020 01:51 5 90 1.6 1032.1 0.0 0.0 N 1032.7 0.1 1.6 0.0
08-04-2020 01:56 5 90 1.6 1032.2 0.0 0.0 N 1032.8 0.1 1.6 0.0
08-04-2020 02:01 5 90 1.4 1032.1 0.0 0.0 N 1032.7 -0.1 1.4 0.0
08-04-2020 02:06 5 89 1.3 1032.1 0.0 0.0 N 1032.7 -0.3 1.3 0.0
08-04-2020 02:11 5 90 1.2 1032.0 0.0 0.0 N 1032.6 -0.3 1.2 0.0
08-04-2020 02:16 5 90 1.3 1032.0 0.0 0.0 N 1032.6 -0.2 1.3 0.0
08-04-2020 02:21 5 90 1.4 1032.0 0.0 0.0 N 1032.6 -0.1 1.4 0.0
08-04-2020 02:26 5 90 1.5 1031.8 0.0 0.0 E 1032.4 0.0 1.5 0.0
08-04-2020 02:31 5 90 1.5 1031.8 0.0 0.0 E 1032.4 0.0 1.5 0.0
08-04-2020 02:36 5 90 1.4 1031.7 0.0 0.0 E 1032.3 -0.1 1.4 0.0
08-04-2020 02:41 5 90 1.2 1031.8 0.0 0.0 E 1032.4 -0.3 1.2 0.0
08-04-2020 02:46 5 90 1.2 1031.7 0.0 0.0 E 1032.3 -0.3 1.2 0.0
08-04-2020 02:51 5 90 1.4 1031.5 0.0 0.0 NE 1032.1 -0.1 1.4 0.0
08-04-2020 02:56 5 90 1.3 1031.6 0.0 0.0 NE 1032.2 -0.2 1.3 0.0
08-04-2020 03:01 5 90 1.0 1031.7 0.0 0.0 NE 1032.3 -0.5 1.0 0.0
08-04-2020 03:06 5 90 1.1 1031.7 0.0 0.0 E 1032.3 -0.4 1.1 0.0
08-04-2020 03:11 5 90 1.2 1031.5 0.0 0.0 E 1032.1 -0.3 1.2 0.0
08-04-2020 03:16 5 90 1.0 1031.5 0.0 0.0 E 1032.1 -0.5 1.0 0.0
08-04-2020 03:21 5 90 1.1 1031.4 0.0 0.0 E 1032.0 -0.4 1.1 0.0
08-04-2020 03:26 5 90 1.1 1031.3 0.0 0.0 E 1031.9 -0.4 1.1 0.0
08-04-2020 03:31 5 90 0.9 1031.4 0.0 0.0 E 1032.0 -0.6 0.9 0.0
08-04-2020 03:36 5 90 0.7 1031.3 0.0 0.0 E 1031.9 -0.8 0.7 0.0
08-04-2020 03:41 5 90 0.5 1031.2 0.0 0.0 NW 1031.8 -0.9 0.5 0.0
08-04-2020 03:46 5 90 0.4 1031.2 0.0 0.0 NW 1031.8 -1.0 0.4 0.0
08-04-2020 03:51 5 90 0.3 1031.3 0.0 0.0 NW 1031.9 -1.1 0.3 0.0
08-04-2020 03:56 5 90 0.2 1031.3 0.0 0.0 NW 1031.9 -1.2 0.2 0.0
08-04-2020 04:01 5 90 0.2 1031.2 0.0 0.0 NW 1031.8 -1.2 0.2 0.0
08-04-2020 04:06 5 90 0.2 1031.3 0.0 0.0 N 1031.9 -1.2 0.2 0.0
08-04-2020 04:11 5 91 0.2 1031.4 0.0 0.0 NE 1032.0 -1.1 0.2 0.0
08-04-2020 04:16 5 91 0.1 1031.3 0.0 0.0 NE 1031.9 -1.2 0.1 0.0
08-04-2020 04:21 5 91 -0.1 1031.2 0.0 0.0 NE 1031.8 -1.4 -0.1 0.0
08-04-2020 04:26 5 91 0.0 1031.2 0.0 0.0 NE 1031.8 -1.3 0.0 0.0
08-04-2020 04:31 5 91 0.0 1031.1 0.0 0.0 NE 1031.7 -1.3 0.0 0.0
08-04-2020 04:36 5 91 0.0 1031.1 0.0 0.0 NE 1031.7 -1.3 0.0 0.0
08-04-2020 04:41 5 91 -0.1 1031.2 0.0 0.0 NE 1031.8 -1.4 -0.1 0.0
08-04-2020 04:46 5 91 0.1 1030.9 0.0 0.0 NE 1031.5 -1.2 0.1 0.0
08-04-2020 04:51 5 91 0.1 1030.9 0.0 0.0 NE 1031.5 -1.2 0.1 0.0
08-04-2020 04:56 5 91 0.2 1030.8 0.0 0.0 NE 1031.4 -1.1 0.2 0.0
08-04-2020 05:01 5 91 0.1 1030.8 0.0 0.0 NE 1031.4 -1.2 0.1 0.0
08-04-2020 05:06 5 91 -0.1 1030.7 0.0 0.0 NE 1031.3 -1.4 -0.1 0.0
08-04-2020 05:11 5 91 -0.2 1030.6 0.0 0.0 NE 1031.2 -1.5 -0.2 0.0
08-04-2020 05:16 5 91 -0.2 1030.8 0.0 0.0 NE 1031.4 -1.5 -0.2 0.0
08-04-2020 05:21 5 91 -0.4 1030.5 0.0 0.0 NE 1031.1 -1.7 -0.4 0.0
08-04-2020 05:26 5 91 -0.5 1030.3 0.0 0.0 N 1030.9 -1.8 -0.5 0.0
08-04-2020 05:31 5 91 -0.4 1030.3 0.0 0.0 N 1030.9 -1.7 -0.4 0.0
08-04-2020 05:36 5 91 -0.4 1030.3 0.0 0.0 N 1030.9 -1.7 -0.4 0.0
08-04-2020 05:41 5 91 -0.5 1030.1 0.0 0.0 N 1030.7 -1.8 -0.5 0.0
08-04-2020 05:46 5 91 -0.4 1030.3 0.0 0.0 N 1030.9 -1.7 -0.4 0.0
08-04-2020 05:51 5 91 -0.5 1030.3 0.0 0.0 N 1030.9 -1.8 -0.5 0.0
08-04-2020 05:56 5 91 -0.6 1030.2 0.0 0.0 N 1030.8 -1.9 -0.6 0.0
08-04-2020 06:01 5 92 -0.6 1030.1 0.0 0.0 NE 1030.7 -1.7 -0.6 0.0
08-04-2020 06:06 5 92 -0.6 1030.2 0.0 0.0 NE 1030.8 -1.7 -0.6 0.0
08-04-2020 06:11 5 91 -0.8 1030.1 0.0 0.0 NE 1030.7 -2.1 -0.8 0.0
08-04-2020 06:16 5 91 -0.8 1030.0 0.0 0.0 NW 1030.6 -2.1 -0.8 0.0
08-04-2020 06:21 5 92 -0.6 1029.9 0.0 0.0 NW 1030.5 -1.7 -0.6 0.0
08-04-2020 06:26 5 92 -0.5 1029.9 0.0 0.0 NW 1030.5 -1.6 -0.5 0.0
08-04-2020 06:31 5 92 -0.4 1029.8 0.0 0.0 NW 1030.4 -1.5 -0.4 0.0
08-04-2020 06:36 5 92 -0.4 1030.0 0.0 0.0 NE 1030.6 -1.5 -0.4 0.0
08-04-2020 06:41 5 92 -0.2 1029.8 0.0 0.0 NE 1030.4 -1.3 -0.2 0.0
08-04-2020 06:46 5 92 -0.2 1029.9 0.0 0.0 NE 1030.5 -1.3 -0.2 0.0
08-04-2020 06:51 5 92 -0.2 1030.0 0.0 0.0 NE 1030.6 -1.3 -0.2 0.0
08-04-2020 06:56 5 92 -0.1 1029.8 0.0 0.0 NE 1030.4 -1.2 -0.1 0.0
08-04-2020 07:01 5 93 0.1 1029.7 0.0 0.0 NE 1030.3 -0.9 0.1 0.0
08-04-2020 07:06 5 93 0.2 1029.7 0.0 0.0 NE 1030.3 -0.8 0.2 0.0
08-04-2020 07:11 5 93 0.1 1029.7 0.0 0.0 NW 1030.3 -0.9 0.1 0.0
08-04-2020 07:16 5 93 0.1 1029.7 0.0 0.0 NW 1030.3 -0.9 0.1 0.0
08-04-2020 07:21 5 93 0.5 1029.6 0.0 0.0 NW 1030.2 -0.5 0.5 0.0
08-04-2020 07:26 5 94 1.5 1029.4 0.0 0.0 NW 1030.0 0.6 1.5 0.0
08-04-2020 07:31 5 94 2.0 1029.6 0.0 0.0 NW 1030.2 1.1 2.0 0.0
08-04-2020 07:36 5 93 2.1 1029.6 0.0 0.0 NW 1030.2 1.1 2.1 0.0
08-04-2020 07:41 5 93 2.8 1029.5 0.0 0.0 N 1030.1 1.8 2.8 0.0
08-04-2020 07:46 5 92 3.8 1029.8 0.0 0.0 N 1030.4 2.6 3.8 0.0
08-04-2020 07:51 5 92 4.9 1029.8 0.0 0.0 N 1030.4 3.7 4.9 0.0
08-04-2020 07:56 5 91 5.3 1029.7 0.0 1.1 NEE 1030.3 4.0 5.3 0.0
08-04-2020 08:01 5 90 5.4 1029.7 0.0 0.0 NE 1030.3 3.9 5.4 0.0
08-04-2020 08:06 5 90 5.6 1029.6 0.0 0.0 NE 1030.2 4.1 5.6 0.0
08-04-2020 08:11 5 89 6.9 1029.7 0.0 0.0 E 1030.3 5.2 6.9 0.0
08-04-2020 08:16 5 83 8.0 1029.5 0.0 2.5 NEE 1030.1 5.3 8.0 0.0
08-04-2020 08:21 5 80 8.2 1029.6 0.0 0.0 NE 1030.2 5.0 8.2 0.0
08-04-2020 08:26 5 76 8.6 1029.4 0.0 1.1 NEE 1030.0 4.6 8.6 0.0
08-04-2020 08:31 5 74 9.0 1029.5 0.0 1.1 SE 1030.1 4.6 9.0 0.0
08-04-2020 08:36 5 73 9.6 1029.5 0.0 1.1 NE 1030.1 5.0 9.6 0.0
08-04-2020 08:41 5 73 10.3 1029.4 0.0 0.0 SE 1030.0 5.7 10.3 0.0
08-04-2020 08:46 5 70 10.9 1029.3 5.0 7.2 SE 1029.9 5.7 10.9 0.0
08-04-2020 08:51 5 65 10.8 1029.3 5.0 7.2 SE 1029.9 4.5 10.8 0.0
08-04-2020 08:56 5 63 10.5 1029.3 2.5 3.6 S 1029.9 3.8 10.5 0.0
08-04-2020 09:01 5 64 10.3 1029.2 3.6 7.2 SE 1029.8 3.8 10.3 0.0
08-04-2020 09:06 5 64 10.5 1029.2 6.1 8.6 SE 1029.8 4.0 10.5 0.0
08-04-2020 09:11 5 63 10.8 1029.0 5.0 9.7 SEE 1029.6 4.1 10.8 0.0
08-04-2020 09:16 5 62 11.0 1029.1 7.2 9.7 NEE 1029.7 4.0 9.9 0.0
08-04-2020 09:21 5 63 11.1 1028.9 5.0 6.1 SE 1029.5 4.3 11.1 0.0
08-04-2020 09:26 5 62 11.3 1028.9 6.1 8.6 S 1029.5 4.3 11.3 0.0
08-04-2020 09:31 5 62 11.4 1028.8 3.6 6.1 SSW 1029.4 4.4 11.4 0.0
08-04-2020 09:36 5 62 11.6 1028.7 6.1 8.6 SSE 1029.3 4.6 11.6 0.0
08-04-2020 09:41 5 62 11.8 1028.8 5.0 8.6 SSE 1029.4 4.8 11.8 0.0
08-04-2020 09:46 5 60 12.4 1028.7 8.6 11.2 SE 1029.3 4.9 10.6 0.0
08-04-2020 09:51 5 56 12.6 1028.6 5.0 7.2 NEE 1029.2 4.1 12.6 0.0
08-04-2020 09:56 5 55 13.0 1028.5 6.1 9.7 NEE 1029.1 4.2 13.0 0.0
08-04-2020 10:01 5 54 13.2 1028.4 9.7 12.2 SE 1029.0 4.1 11.0 0.0
08-04-2020 10:06 5 53 13.2 1028.3 6.1 8.6 NEE 1028.9 3.8 13.2 0.0
08-04-2020 10:11 5 53 13.7 1028.3 9.7 14.8 SE 1028.9 4.3 11.5 0.0
08-04-2020 10:16 5 52 13.7 1028.3 7.2 11.2 SE 1028.9 4.0 12.8 0.0
08-04-2020 10:21 5 52 14.0 1028.3 7.2 9.7 SE 1028.9 4.3 13.1 0.0
08-04-2020 10:26 5 50 14.3 1028.4 7.2 9.7 SE 1029.0 4.0 13.4 0.0
08-04-2020 10:31 5 51 14.4 1028.3 6.1 12.2 SE 1028.9 4.4 14.4 0.0
08-04-2020 10:36 5 50 14.5 1028.3 8.6 9.7 NW 1028.9 4.2 12.9 0.0
08-04-2020 10:41 5 50 14.0 1028.2 7.2 11.2 S 1028.8 3.8 13.1 0.0
08-04-2020 10:46 5 51 14.0 1028.0 3.6 6.1 SE 1028.6 4.0 14.0 0.0
08-04-2020 10:51 5 50 14.4 1027.9 6.1 9.7 SE 1028.5 4.1 14.4 0.0
08-04-2020 10:56 5 48 15.4 1028.0 7.2 9.7 E 1028.6 4.5 14.5 0.0
08-04-2020 11:01 5 46 15.6 1027.9 5.0 7.2 SE 1028.5 4.0 15.6 0.0
08-04-2020 11:06 5 44 16.0 1027.9 5.0 7.2 SSE 1028.5 3.8 16.0 0.0
08-04-2020 11:11 5 43 16.1 1027.8 8.6 9.7 S 1028.4 3.5 14.6 0.0
08-04-2020 11:16 5 43 16.3 1027.8 9.7 13.3 SE 1028.4 3.7 14.4 0.0
08-04-2020 11:21 5 43 16.3 1027.7 9.7 12.2 E 1028.3 3.7 14.4 0.0
08-04-2020 11:26 5 42 16.4 1027.6 9.7 12.2 E 1028.2 3.5 14.5 0.0
08-04-2020 11:31 5 42 16.8 1027.6 8.6 14.8 SE 1028.2 3.8 15.4 0.0
08-04-2020 11:36 5 42 16.9 1027.5 8.6 9.7 SE 1028.1 3.9 15.5 0.0
08-04-2020 11:41 5 42 16.9 1027.3 8.6 9.7 S 1027.9 3.9 15.5 0.0
08-04-2020 11:46 5 41 17.0 1027.3 5.0 7.2 SE 1027.9 3.7 17.0 0.0
08-04-2020 11:51 5 41 17.3 1027.2 8.6 12.2 E 1027.8 3.9 15.9 0.0
08-04-2020 11:56 5 41 17.3 1027.1 8.6 11.2 NW 1027.7 3.9 15.9 0.0
08-04-2020 12:01 5 39 17.5 1027.1 8.6 11.2 SE 1027.7 3.4 16.2 0.0
08-04-2020 12:06 5 39 17.5 1026.9 8.6 11.2 SE 1027.5 3.4 16.2 0.0
08-04-2020 12:11 5 39 18.0 1026.7 6.1 9.7 SE 1027.3 3.9 18.0 0.0
08-04-2020 12:16 5 38 18.0 1026.7 8.6 11.2 S 1027.3 3.5 16.7 0.0
08-04-2020 12:21 5 38 18.1 1026.7 7.2 9.7 NW 1027.3 3.6 17.4 0.0
08-04-2020 12:26 5 39 18.3 1026.4 6.1 7.2 E 1027.0 4.1 18.3 0.0
08-04-2020 12:31 5 38 18.4 1026.4 5.0 7.2 SE 1027.0 3.8 18.4 0.0
08-04-2020 12:36 5 37 18.5 1026.5 11.2 14.8 SSE 1027.1 3.6 16.4 0.0
08-04-2020 12:43 5 37 18.5 1026.4 8.6 12.2 S 1027.0 3.6 17.2 0.0
08-04-2020 12:48 5 38 19.0 1026.4 6.1 7.2 E 1027.0 4.4 19.0 0.0
08-04-2020 12:53 5 37 18.9 1026.3 7.2 11.2 S 1026.9 3.9 18.2 0.0
08-04-2020 12:58 5 40 19.3 1026.2 8.6 11.2 E 1026.8 5.4 18.1 0.0
08-04-2020 13:03 5 40 19.4 1026.1 6.1 8.6 SE 1026.7 5.5 19.4 0.0
08-04-2020 13:08 5 40 19.4 1026.0 3.6 6.1 S 1026.6 5.5 19.4 0.0
08-04-2020 13:13 5 39 19.5 1026.0 7.2 9.7 E 1026.6 5.2 18.8 0.0
08-04-2020 13:18 5 40 19.4 1025.9 9.7 12.2 NW 1026.5 5.5 17.9 0.0
08-04-2020 13:23 5 40 19.3 1025.9 9.7 13.3 E 1026.5 5.4 17.8 0.0
08-04-2020 13:28 5 40 19.3 1025.8 6.1 8.6 SE 1026.4 5.4 19.3 0.0
08-04-2020 13:33 5 40 19.8 1025.8 8.6 12.2 S 1026.4 5.8 18.7 0.0
08-04-2020 13:38 5 40 19.8 1025.7 8.6 12.2 S 1026.3 5.8 18.7 0.0
08-04-2020 13:43 5 41 20.2 1025.6 9.7 13.3 SE 1026.2 6.6 18.8 0.0
08-04-2020 13:48 5 40 20.3 1025.5 9.7 13.3 E 1026.1 6.3 18.9 0.0
08-04-2020 13:53 5 40 20.3 1025.5 13.3 17.3 NW 1026.1 6.3 18.0 0.0
08-04-2020 13:58 5 41 20.1 1025.5 6.1 7.2 S 1026.1 6.5 20.1 0.0
08-04-2020 14:03 5 40 20.1 1025.4 7.2 12.2 S 1026.0 6.1 19.5 0.0
08-04-2020 14:08 5 40 20.1 1025.2 11.2 15.8 SE 1025.8 6.1 18.2 0.0
08-04-2020 14:13 5 41 20.4 1025.2 8.6 12.2 SE 1025.8 6.7 19.3 0.0
08-04-2020 14:18 5 41 20.6 1025.0 8.6 13.3 S 1025.6 6.9 19.5 0.0
08-04-2020 14:23 5 40 20.5 1025.0 12.2 14.8 E 1025.6 6.5 18.4 0.0
08-04-2020 14:28 5 41 20.8 1024.9 8.6 11.2 S 1025.5 7.1 19.7 0.0
08-04-2020 14:33 5 40 20.8 1024.7 9.7 12.2 SE 1025.3 6.7 19.4 0.0
08-04-2020 14:38 5 40 20.6 1024.7 8.6 11.2 SSE 1025.3 6.6 19.5 0.0
08-04-2020 14:43 5 41 20.9 1024.7 8.6 12.2 SE 1025.3 7.2 19.8 0.0
08-04-2020 14:48 5 40 21.0 1024.6 17.3 25.6 SE 1025.2 6.9 18.1 0.0
08-04-2020 14:53 5 41 21.3 1024.6 3.6 6.1 S 1025.2 7.5 21.3 0.0
08-04-2020 14:58 5 40 21.7 1024.4 5.0 7.2 SE 1025.0 7.5 21.7 0.0
08-04-2020 15:03 5 40 21.5 1024.4 11.2 13.3 SE 1025.0 7.4 19.9 0.0
08-04-2020 15:08 5 40 21.6 1024.2 8.6 11.2 S 1024.8 7.5 20.6 0.0
08-04-2020 15:13 5 40 21.5 1024.3 6.1 9.7 S 1024.9 7.4 21.5 0.0
08-04-2020 15:18 5 40 21.7 1024.0 7.2 11.2 S 1024.6 7.5 21.1 0.0
08-04-2020 15:23 5 40 22.2 1024.0 7.2 11.2 SW 1024.6 8.0 21.7 0.0
08-04-2020 15:28 5 39 22.3 1023.9 12.2 15.8 SW 1024.5 7.7 20.5 0.0
08-04-2020 15:33 5 39 22.2 1023.8 9.7 13.3 S 1024.4 7.6 21.0 0.0
08-04-2020 15:38 5 40 22.3 1023.7 6.1 9.7 S 1024.3 8.1 22.3 0.0
08-04-2020 15:43 5 36 22.5 1023.7 6.1 9.7 S 1024.3 6.7 22.5 0.0
08-04-2020 15:48 5 33 22.6 1023.7 11.2 15.8 SW 1024.3 5.5 21.1 0.0
08-04-2020 15:53 5 33 22.5 1023.7 9.7 13.3 S 1024.3 5.5 21.3 0.0
08-04-2020 15:58 5 37 22.4 1023.6 15.8 19.4 SW 1024.2 7.0 20.0 0.0
08-04-2020 16:03 5 36 22.3 1023.4 8.6 11.2 S 1024.0 6.5 21.4 0.0
08-04-2020 16:08 5 34 22.6 1023.4 12.2 14.8 S 1024.0 6.0 20.9 0.0
08-04-2020 16:13 5 34 22.7 1023.3 6.1 9.7 SSW 1023.9 6.1 22.7 0.0
08-04-2020 16:18 5 33 22.6 1023.1 6.1 8.6 SE 1023.7 5.5 22.6 0.0
08-04-2020 16:23 5 33 22.5 1023.1 8.6 11.2 SE 1023.7 5.5 21.6 0.0
08-04-2020 16:28 5 36 22.4 1023.0 11.2 15.8 S 1023.6 6.6 20.9 0.0
08-04-2020 16:33 5 33 22.6 1022.9 9.7 12.2 SW 1023.5 5.5 21.4 0.0
08-04-2020 16:38 5 33 23.0 1022.9 11.2 14.8 W 1023.5 5.9 21.6 0.0
08-04-2020 16:43 5 31 22.9 1022.8 9.7 11.2 SW 1023.4 4.9 21.8 0.0
08-04-2020 16:48 5 32 23.2 1022.8 6.1 7.2 W 1023.4 5.6 23.2 0.0
08-04-2020 16:53 5 32 23.0 1022.7 8.6 12.2 W 1023.3 5.4 22.1 0.0
08-04-2020 16:58 5 31 23.1 1022.7 8.6 11.2 SWW 1023.3 5.1 22.2 0.0
08-04-2020 17:03 5 32 23.0 1022.6 11.2 14.8 SW 1023.2 5.4 21.6 0.0
08-04-2020 17:08 5 31 22.8 1022.6 14.8 19.4 SW 1023.2 4.8 20.7 0.0
08-04-2020 17:13 5 30 22.9 1022.6 17.3 20.9 SW 1023.2 4.4 20.4 0.0
08-04-2020 17:18 5 31 22.7 1022.5 11.2 14.8 SW 1023.1 4.7 21.2 0.0
08-04-2020 17:23 5 31 22.6 1022.5 8.6 12.2 SW 1023.1 4.6 21.7 0.0
08-04-2020 17:28 5 31 22.7 1022.5 14.8 18.4 SW 1023.1 4.7 20.6 0.0
08-04-2020 17:33 5 31 22.8 1022.3 11.2 12.2 W 1022.9 4.8 21.3 0.0
08-04-2020 17:38 5 31 23.0 1022.3 7.2 9.7 SW 1022.9 5.0 22.5 0.0
08-04-2020 17:43 5 31 22.9 1022.2 9.7 11.2 SW 1022.8 4.9 21.8 0.0
08-04-2020 17:48 5 31 22.7 1022.1 11.2 13.3 SW 1022.7 4.7 21.2 0.0
08-04-2020 17:53 5 32 22.5 1022.2 12.2 14.8 SW 1022.8 5.0 20.8 0.0
08-04-2020 17:58 5 36 22.3 1022.0 8.6 11.2 SW 1022.6 6.5 21.4 0.0
08-04-2020 18:03 5 36 22.2 1022.1 11.2 13.3 SW 1022.7 6.4 20.7 0.0
08-04-2020 18:08 5 35 22.2 1022.0 9.7 12.2 W 1022.6 6.0 21.0 0.0
08-04-2020 18:13 5 35 22.0 1021.9 12.2 15.8 SW 1022.5 5.9 20.2 0.0
08-04-2020 18:18 5 35 21.9 1021.8 9.7 13.3 W 1022.4 5.8 20.6 0.0
08-04-2020 18:23 5 37 21.9 1021.8 7.2 11.2 W 1022.4 6.6 21.4 0.0
08-04-2020 18:28 5 37 22.1 1021.8 8.6 11.2 SW 1022.4 6.8 21.2 0.0
08-04-2020 18:33 5 37 21.9 1021.7 7.2 9.7 NW 1022.3 6.6 21.4 0.0
08-04-2020 18:38 5 39 21.8 1021.7 7.2 9.7 SW 1022.3 7.3 21.3 0.0
08-04-2020 18:43 5 38 21.7 1021.7 7.2 11.2 SWW 1022.3 6.8 21.1 0.0
08-04-2020 18:48 5 37 21.8 1021.7 8.6 11.2 W 1022.3 6.5 20.8 0.0
08-04-2020 18:53 5 38 21.7 1021.7 7.2 9.7 SW 1022.3 6.8 21.1 0.0
08-04-2020 18:58 5 39 21.3 1021.5 7.2 9.7 SSW 1022.1 6.8 20.7 0.0
08-04-2020 19:03 5 40 20.9 1021.6 6.1 7.2 S 1022.2 6.8 20.9 0.0
08-04-2020 19:08 5 41 20.6 1021.5 2.5 3.6 S 1022.1 6.9 20.6 0.0
08-04-2020 19:13 5 41 20.7 1021.5 3.6 5.0 SW 1022.1 7.0 20.7 0.0
08-04-2020 19:18 5 41 20.8 1021.5 0.0 0.0 W 1022.1 7.1 20.8 0.0
08-04-2020 19:23 5 41 20.9 1021.4 3.6 5.0 W 1022.0 7.2 20.9 0.0
08-04-2020 19:28 5 41 20.4 1021.4 2.5 3.6 SW 1022.0 6.7 20.4 0.0
08-04-2020 19:33 5 42 20.1 1021.4 3.6 5.0 SW 1022.0 6.8 20.1 0.0
08-04-2020 19:38 5 42 19.8 1021.4 0.0 0.0 W 1022.0 6.5 19.8 0.0
08-04-2020 19:43 5 43 19.4 1021.5 1.1 2.5 W 1022.1 6.5 19.4 0.0
08-04-2020 19:48 5 44 18.9 1021.4 0.0 0.0 SW 1022.0 6.4 18.9 0.0
08-04-2020 19:53 5 44 18.6 1021.4 0.0 0.0 NW 1022.0 6.1 18.6 0.0
08-04-2020 19:58 5 45 18.3 1021.4 0.0 0.0 NW 1022.0 6.2 18.3 0.0
08-04-2020 20:03 5 46 17.9 1021.4 0.0 0.0 W 1022.0 6.1 17.9 0.0
08-04-2020 20:08 5 46 17.7 1021.3 0.0 0.0 W 1021.9 6.0 17.7 0.0
08-04-2020 20:13 5 51 17.2 1021.3 0.0 0.0 SW 1021.9 7.0 17.2 0.0
08-04-2020 20:18 5 52 17.1 1021.3 0.0 0.0 SW 1021.9 7.2 17.1 0.0
08-04-2020 20:23 5 52 17.2 1021.3 0.0 0.0 SW 1021.9 7.3 17.2 0.0
08-04-2020 20:28 5 52 17.2 1021.3 2.5 3.6 SW 1021.9 7.3 17.2 0.0
08-04-2020 20:33 5 52 17.3 1021.4 1.1 3.6 SW 1022.0 7.4 17.3 0.0
08-04-2020 20:38 5 52 17.1 1021.4 0.0 0.0 SW 1022.0 7.2 17.1 0.0
08-04-2020 20:43 5 52 16.9 1021.5 2.5 5.0 NW 1022.1 7.0 16.9 0.0
08-04-2020 20:48 5 55 15.4 1021.6 0.0 0.0 NNW 1022.2 6.4 15.4 0.0
08-04-2020 20:53 5 58 14.5 1021.5 0.0 0.0 N 1022.1 6.4 14.5 0.0
08-04-2020 20:58 5 61 13.7 1021.6 0.0 0.0 NW 1022.2 6.3 13.7 0.0
08-04-2020 21:03 5 62 13.3 1021.6 0.0 0.0 N 1022.2 6.2 13.3 0.0
08-04-2020 21:08 5 64 13.3 1021.6 2.5 5.0 NW 1022.2 6.7 13.3 0.0
08-04-2020 21:13 5 64 14.1 1021.6 7.2 8.6 W 1022.2 7.4 13.2 0.0
08-04-2020 21:18 5 63 14.8 1021.7 6.1 7.2 W 1022.3 7.8 14.8 0.0
08-04-2020 21:23 5 62 15.4 1021.7 8.6 9.7 NWW 1022.3 8.2 13.9 0.0
08-04-2020 21:28 5 61 15.7 1021.8 8.6 11.2 NWW 1022.4 8.2 14.2 0.0
08-04-2020 21:33 5 61 15.6 1021.6 7.2 9.7 NW 1022.2 8.1 14.7 0.0
08-04-2020 21:38 5 60 15.6 1021.6 8.6 12.2 W 1022.2 7.9 14.1 0.0
08-04-2020 21:43 5 58 15.4 1021.6 11.2 13.3 W 1022.2 7.2 12.9 0.0
08-04-2020 21:48 5 58 15.0 1021.7 5.0 6.1 W 1022.3 6.8 15.0 0.0
08-04-2020 21:53 5 58 14.7 1021.7 7.2 9.7 W 1022.3 6.5 13.8 0.0
08-04-2020 21:58 5 59 14.5 1021.7 5.0 7.2 NW 1022.3 6.6 14.5 0.0
08-04-2020 22:03 5 60 14.1 1021.9 5.0 7.2 NWW 1022.5 6.5 14.1 0.0
08-04-2020 22:08 5 60 14.0 1021.8 5.0 6.1 N 1022.4 6.4 14.0 0.0
08-04-2020 22:13 5 61 13.9 1021.7 6.1 7.2 NWW 1022.3 6.5 13.9 0.0
08-04-2020 22:18 5 61 14.0 1021.7 7.2 8.6 W 1022.3 6.6 13.1 0.0
08-04-2020 22:23 5 61 14.0 1021.7 6.1 7.2 W 1022.3 6.6 14.0 0.0
08-04-2020 22:28 5 61 14.0 1021.6 6.1 7.2 W 1022.2 6.6 14.0 0.0
08-04-2020 22:33 5 61 14.0 1021.7 6.1 7.2 W 1022.3 6.6 14.0 0.0
08-04-2020 22:38 5 61 13.8 1021.7 5.0 6.1 W 1022.3 6.4 13.8 0.0
08-04-2020 22:43 5 62 13.3 1021.7 3.6 5.0 NWW 1022.3 6.2 13.3 0.0
08-04-2020 22:48 5 62 13.0 1021.8 3.6 5.0 NWW 1022.4 5.9 13.0 0.0
08-04-2020 22:53 5 63 12.7 1021.6 2.5 3.6 W 1022.2 5.9 12.7 0.0
08-04-2020 22:58 5 68 12.3 1021.7 2.5 3.6 NW 1022.3 6.6 12.3 0.0
08-04-2020 23:03 5 68 12.2 1021.6 0.0 1.1 NW 1022.2 6.5 12.2 0.0
08-04-2020 23:08 5 70 11.8 1021.7 2.5 3.6 NW 1022.3 6.5 11.8 0.0
08-04-2020 23:13 5 70 11.8 1021.7 3.6 6.1 NW 1022.3 6.5 11.8 0.0
08-04-2020 23:18 5 70 11.8 1021.6 2.5 5.0 NW 1022.2 6.5 11.8 0.0
08-04-2020 23:23 5 70 11.9 1021.5 6.1 7.2 W 1022.1 6.6 11.9 0.0
08-04-2020 23:28 5 70 12.2 1021.5 1.1 2.5 W 1022.1 6.9 12.2 0.0
08-04-2020 23:33 5 68 12.0 1021.6 2.5 3.6 W 1022.2 6.3 12.0 0.0
08-04-2020 23:38 5 68 11.8 1021.5 2.5 5.0 NW 1022.1 6.1 11.8 0.0
08-04-2020 23:43 5 68 11.5 1021.5 1.1 2.5 NW 1022.1 5.8 11.5 0.0
08-04-2020 23:48 5 70 11.3 1021.6 0.0 0.0 N 1022.2 6.0 11.3 0.0
08-04-2020 23:53 5 70 11.1 1021.7 0.0 1.1 NW 1022.3 5.9 11.1 0.0
08-04-2020 23:58 5 70 10.7 1021.6 0.0 0.0 NW 1022.2 5.5 10.7 0.0

 

Tagesdaten vom DWD                                               Tabelle: 08 : 00 UHR

STATIONHÖHELUFTD.TEMP.T-MinT-MaxU%RR1RR12SSSDDFFFXWetter+WolkenBöen
UFS TW Ems 0 ------ --- --- --- --- ---- --- --- -- --- --- --- ---
UFS Deutsche Bucht 0 1027.4 8.5 8.1 9.6 81 ---- --- --- SO 18 --- --- ---
Helgoland 4 1027.2 8.3 8.1 9.1 81 0.0 0 0 SO 21 29 --- ---
List/Sylt 26 1028.2 8.0 6.6 9.5 72 0.0 0 0 SO 15 22 --- ---
Schleswig 43 1029.1 8.8 5.2 12.9 65 0.0 0 0 SO 10 22 --- ---
Leuchtturm Kiel 5 1029.4 8.8 8.2 12.4 62 ---- --- --- SO 22 26 --- ---
Kiel 27 1029.4 8.7 7.4 12.3 65 0.0 0 0 SO 12 23 --- ---
Fehmarn 3 1030.3 6.9 4.0 10.1 79 0.0 0 0 SO 10 19 --- ---
Arkona 42 1032.1 8.3 6.4 10.0 69 0.0 0 0 SO 12 17 --- ---
Norderney 11 1026.8 9.0 8.3 11.0 65 0.0 0 0 SO 15 24   ---
Leuchtt. Alte Weser 32 1027.0 10.2 9.5 11.5 61 ---- --- --- SO 29 --- --- ---
Cuxhaven 5 1027.8 8.4 7.9 9.8 78 0.0 0 0 SO 15 25 --- ---
Hamburg-Flh. 11 1029.1 9.4 7.1 15.0 56 0.0 0 0 O 13 18 heiter ---
Schwerin 59 1030.3 7.8 3.7 12.3 64 0.0 0 0 SO 9 14 wolkenlos ---
Rostock 4 1031.0 7.4 5.3 10.6 69 0.0 0 0 SO 9 18 --- ---
Greifswald 2 1031.8 3.4 0.1 11.7 94 0.0 0 0 O 4 7 heiter ---
Emden 0 1026.7 8.7 4.5 12.3 66 0.0 0 0 SO 9 17 --- ---
Bremen-Flh. 5 1027.7 9.6 8.2 15.1 60 0.0 0 0 SO 14 20 heiter ---
Lüchow 17 ------ --- --- --- --- ---- --- --- -- --- --- --- ---
Marnitz 81 1030.5 8.1 2.1 12.5 62 0.0 0 0 S 15 22 --- ---
Waren 70 1031.1 7.5 3.1 12.5 68 0.0 0 0 SO 6 12 --- ---
Neuruppin 38 1031.1 5.8 1.7 14.2 71 0.0 0 0 NO 5 11 --- ---
Angermünde 56 1032.0 4.2 1.4 11.8 78 0.0 0 0 NO 3 4 wolkenlos ---
Münster/Osnabr.-Flh. 48 1026.7 11.6 8.3 16.8 72 0.0 0 0 SO 4 9 heiter ---
Hannover-Flh. 59 1028.4 7.6 5.9 15.9 69 0.0 0 0 O 13 18 heiter ---
Magdeburg 76 1029.8 5.5 3.7 16.8 79 0.0 0 0 O 2 5 wolkenlos ---
Potsdam 81 1030.4 8.0 5.9 15.5 61 0.0 0 0 O 18 30 wolkenlos ---
Berlin-Tegel 37 1030.9 8.8 6.8 16.5 59 0.0 0 0 O 8 13 heiter ---
Berlin-Tempelhof 48 1031.0 8.4 5.4 15.8 62 0.0 0 --- O 12 19 --- ---
Berlin-Dahlem 51 1030.7 8.4 6.1 16.7 --- ---- 0 0 O 14 --- wolkenlos ---
Lindenberg 91 1031.1 8.3 6.4 15.2 60 0.0 0 0 O 13 25 wolkenlos ---
Düsseldorf-Flh. 45 1026.0 13.3 8.4 18.3 69 0.0 0 0 S 12 21 heiter ---
Essen 150 1026.1 14.4 12.6 17.3 61 0.0 0 0 S 9 15 --- ---
Kahler Asten 839 ------ 11.1 8.9 11.9 51 0.0 0 0 S 18 25 wolkenlos ---
Bad Lippspringe 157 1026.9 12.2 11.5 16.4 69 0.0 0 0 SW 5 12 --- ---
Fritzlar 174 1028.7 6.8 6.0 17.7 90 ---- 0 0 NW 11 --- wolkenlos ---
Brocken 1142 ------ 8.2 5.7 8.5 69 ---- --- --- S 23 37 --- ---
Leipzig-Flh. 142 1029.6 7.4 5.2 15.4 79 0.0 0 0 O 8 13 wolkenlos ---
Dresden-Flh. 227 1030.0 8.3 7.5 17.0 80 0.0 0 0 SO 6 13 wolkenlos ---
Cottbus 69 1030.5 8.1 6.8 17.5 62 0.0 0 0 O 8 17 wolkenlos ---
Görlitz 238 1030.7 8.8 5.5 17.6 77 0.0 0 0 O 6 9 wolkenlos ---
Aachen 231 1025.5 13.9 9.7 16.8 51 0.0 0 0 S 11 12 --- ---
Nürburg 485 1027.1 9.2 7.9 16.9 77 0.0 0 0 SW 5 8 wolkenlos ---
Köln/Bonn-Flh. 92 1026.4 11.8 9.1 19.8 72 0.0 0 0 SO 8 9 heiter ---
Gießen/Wettenberg 203 1027.9 8.2 6.5 17.5 84 0.0 0 0 NO 4 6 wolkenlos ---
Wasserkuppe 921 ------ 10.3 8.3 12.6 43 0.0 0 0 SO 27 33 wolkenlos ---
Meiningen 450 1028.8 8.3 7.2 15.5 80 0.0 0 0 NO 4 5 wolkenlos ---
Erfurt 316 1029.6 5.4 4.3 14.5 95 0.0 0 0 S 5 8 Dunst oder flacher Nebel ---
Gera 311 ------ --- --- --- --- ---- --- --- -- --- --- --- ---
Fichtelberg 1213 ------ 5.0 4.0 9.0 48 ---- --- 0 SO 40 46 wolkenlos ---
Trier 265 1026.8 8.5 7.8 19.2 82 0.0 0 0 N 9 14 wolkenlos ---
Hahn-Flh. 497 1027.1 9.4 8.7 17.1 77 0.0 0 --- SO 19 29 --- ---
Frankfurt/M-Flh. 112 1027.1 10.6 9.2 20.9 77 0.0 0 0 O 12 15 wolkenlos ---
OF-Wetterpark 119 1027.5 7.0 5.7 19.9 95 0.0 0 0 - 0 5 Dunst oder flacher Nebel ---
Würzburg 268 1028.1 9.3 7.9 19.3 78 0.0 0 0 NO 5 10 wolkenlos ---
Bamberg 239 1028.4 6.4 3.1 20.3 80 0.0 0 0 O 3 9 wolkenlos ---
Hof 567 1029.3 6.8 3.7 14.3 79 0.0 0 0 O 3 9 wolkenlos ---
Weiden 438 1028.8 6.3 5.1 16.9 57 0.0 0 0 NO 5 9 wolkenlos ---
Saarbrücken-Flh. 320 1026.4 10.9 9.5 18.0 69 0.0 0 0 NO 14 22 wolkenlos ---
Karlsruhe-Rheinst. 116 1026.5 8.5 6.7 20.9 74 0.0 0 --- S 4 15 --- ---
Mannheim 96 1026.6 9.5 7.0 20.1 78 0.0 0 0 NW 5 8 wolkenlos ---
Stuttgart-Flh. 371 1027.4 6.3 4.0 17.6 68 0.0 0 0 NO 3 5 wolkenlos ---
Öhringen 276 1027.1 9.4 8.6 19.3 61 0.0 0 0 NO 10 18 wolkenlos ---
Nürnberg-Flh. 314 1028.2 5.4 3.8 19.6 74 0.0 0 0 NW 4 4 wolkenlos ---
Regensburg 366 1028.4 5.5 4.1 17.6 71 0.0 0 0 N 8 13 wolkenlos ---
Straubing 351 ------ --- --- 17.2 --- ---- --- --- -- --- ---   ---
Großer Arber 1436 ------ 8.1 5.4 8.6 32 0.0 0 47 SO 22 30 wolkenlos ---
Lahr 155 1026.9 7.9 4.0 21.2 69 0.0 0 0 S 11 15 wolkenlos ---
Freudenstadt 797 ------ 7.2 5.2 15.4 63 0.0 0 0 W 7 10 wolkenlos ---
Stötten 734 1026.4 9.2 7.8 14.9 49 0.0 0 0 O 19 30 wolkenlos ---
Augsburg 462 1027.7 5.0 1.3 16.1 81 0.0 0 0 SO 7 7 wolkenlos ---
München-Flh. 444 1028.1 4.3 0.1 17.0 74 0.0 0 0 NO 3 5 wolkenlos ---
Fürstenzell 476 1027.9 7.9 7.5 16.8 49 0.0 0 0 SW 6 9 wolkenlos ---
Feldberg/Schw. 1486 ------ 8.1 7.9 9.7 48 0.0 0 23 W 15 21 wolkenlos ---
Konstanz 443 1027.5 8.3 6.5 18.5 68 0.0 0 0 - 0 5 wolkenlos ---
Kempten 705 1028.5 3.8 0.8 15.9 80 0.0 0 0 O 7 13 wolkenlos ---
Oberstdorf 806 ------ 1.5 -1.0 13.0 84 0.0 0 0 - 0 9 wolkenlos ---
Zugspitze 2960 ------ -2.8 -3.1 -1.1 56 ---- --- 323 NW 15 21   ---
Hohenpeißenberg 977 ------ 10.4 9.4 13.6 45 0.0 0 0 SW 11 17 wolkenlos ---

                                                                                                    Tabelle: 20 : 00 UHR    

STATIONHÖHELUFTD.TEMP.T-MinT-MaxU%RR1RR12SSSDDFFFXWetter+WolkenBöen
UFS TW Ems 0 ------ --- --- --- --- ---- --- --- -- --- --- --- ---
UFS Deutsche Bucht 26 1024.1 9.1 8.4 10.9 88 ---- --- --- NW 4 --- --- ---
Helgoland 4 1023.8 9.4 8.2 12.8 86 0.0 0 0 W 10 15 wolkenlos ---
List/Sylt 26 1022.9 8.3 7.9 14.8 82 0.0 0 0 W 18 25 --- ---
Schleswig 43 1022.7 12.4 8.8 20.1 61 0.0 0 0 W 15 26 --- ---
Leuchtturm Kiel 5 1021.9 14.4 8.7 17.4 55 ---- --- --- W 42 47 --- ---
Kiel 27 1022.2 14.3 8.7 20.3 63 0.0 0 0 W 17 31 --- ---
Fehmarn 3 1021.6 11.7 6.9 17.1 75 0.0 0 0 W 18 23 --- ---
Arkona 42 1021.9 7.9 7.9 11.7 78 0.0 0 0 SO 26 30 --- ---
Norderney 11 1023.9 9.7 8.9 15.3 83 0.0 0 0 N 13 15 --- ---
Leuchtt. Alte Weser 32 1023.7 9.8 9.7 12.9 78 ---- --- --- NW 14 --- --- ---
Cuxhaven 5 1023.6 10.8 8.4 18.0 70 0.0 0 0 NW 10 16 --- ---
Hamburg-Flh 11 1022.7 16.1 9.2 22.2 55 0.0 0 0 NW 14 25 heiter ---
Schwerin 59 1021.8 18.8 7.8 22.1 44 0.0 0 0 W 7 13 --- ---
Rostock 4 1021.5 12.8 7.4 21.8 67 0.0 0 0 W 13 20 --- ---
Greifswald 2 1021.8 16.2 3.6 19.2 53 0.0 0 0 SO 8 18 gering bewölkt ---
Emden 0 1023.3 15.3 8.6 20.1 65 0.0 0 0 N 10 16 --- ---
Bremen-Flh. 5 1022.6 19.1 9.5 23.1 54 0.0 0 0 N 13 18 bewölkt ---
Lüchow 17 ------ --- --- --- --- ---- --- --- -- --- --- --- ---
Marnitz 81 1022.0 17.0 8.2 22.0 45 0.0 0 0 SW 6 13 --- ---
Waren 70 1022.0 15.2 7.5 19.8 54 0.0 0 0 SW 4 16 --- ---
Neuruppin 38 1022.6 16.7 5.9 22.7 47 0.0 0 0 SO 2 8 --- ---
Angermünde 56 1022.8 18.0 4.3 21.1 44 0.0 0 0 SO 7 13 --- ---
Münster/Osnabr.-Flh. 48 1022.2 20.4 11.6 24.0 39 0.0 0 0 W 3 5 heiter ---
Hannover-Flh. 59 1022.3 18.2 7.6 23.0 48 0.0 0 0 NW 6 13 heiter ---
Magdeburg 76 1022.7 17.5 5.5 22.9 37 0.0 0 0 S 3 9 wolkenlos ---
Potsdam 81 1022.7 17.5 8.0 23.6 31 0.0 0 0 SO 5 13 wolkenlos ---
Berlin-Tegel 37 1022.7 18.2 8.9 22.6 30 0.0 0 0 SW 4 11 gering bewölkt ---
Berlin-Tempelhof 48 1022.7 19.8 8.4 22.2 26 0.0 0 --- S 3 12 --- ---
Berlin-Dahlem 51 1022.6 17.0 8.3 22.5 --- ---- 0 0 S 7 --- gering bewölkt ---
Lindenberg 91 1022.6 17.5 8.3 22.0 37 0.0 0 0 S 3 5 wolkenlos ---
Düsseldorf-Flh. 45 1022.1 21.6 13.4 24.5 33 0.0 0 0 NW 5 8 heiter ---
Essen 150 1022.1 21.3 14.4 23.9 36 0.0 0 0 N 7 12 --- ---
Kahler Asten 839 ------ 14.7 11.2 18.7 41 0.0 0 0 N 13 21 wolkenlos ---
Bad Lippspringe 157 1022.1 19.2 11.8 23.8 38 0.0 0 0 N 6 11 wolkenlos ---
Fritzlar 174 1022.2 17.6 6.8 22.9 41 ---- 0 --- - 4 --- --- ---
Brocken 1142 ------ 10.3 8.3 16.0 47 ---- --- --- O 8 13 wolkenlos ---
Leipzig-Flh. 142 1022.7 16.4 7.5 21.6 34 0.0 0 0 N 7 11 wolkenlos ---
Dresden-Flh. 227 1022.4 18.8 8.3 21.8 21 0.0 0 0 SO 7 18 wolkenlos ---
Cottbus 69 1022.3 16.2 8.1 23.5 23 0.0 0 0 SW 4 20 wolkenlos ---
Görlitz 238 1023.0 16.1 8.9 21.6 25 0.0 0 0 SW 9 18 wolkenlos ---
Aachen 231 1022.3 20.2 13.7 23.1 33 0.0 0 0 NO 6 14 --- ---
Nürburg 485 ------ --- --- --- --- ---- --- --- -- --- --- --- ---
Köln/Bonn-Flh. 92 1022.1 20.1 11.8 25.0 34 0.0 0 0 NW 10 18 heiter ---
Gießen/Wettenberg 203 1021.6 19.9 8.3 23.4 24 0.0 0 0 O 3 10 wolkenlos ---
Wasserkuppe 921 ------ 13.8 10.3 18.2 37 0.0 0 0 N 12 17 wolkenlos ---
Meiningen 450 1022.8 15.3 8.3 20.7 38 0.0 0 0 NO 13 21 wolkenlos ---
Erfurt 316 1022.6 17.7 5.4 20.0 28 0.0 0 0 NO 3 5 wolkenlos ---
Gera 311 1022.3 17.5 4.5 20.6 33 0.0 0 0 N 9 13 wolkenlos ---
Fichtelberg 1213 ------ 9.6 4.9 14.5 38 ---- --- 0 SO 17 21 wolkenlos ---
Trier 265 1021.8 21.1 8.3 24.2 29 0.0 0 0 W 6 14 wolkenlos ---
Hahn-Flh. 497 1022.0 18.3 9.4 20.9 32 0.0 0 --- SO 9 10 --- ---
Frankfurt/M-Flh. 112 1022.2 20.2 10.6 24.1 28 0.0 0 0 W 8 13 heiter ---
OF-Wetterpark 119 1022.1 19.7 7.1 24.2 32 0.0 0 0 NO 5 15 wolkenlos ---
Würzburg 268 1022.5 19.1 9.2 22.8 26 0.0 0 0 S 4 12 wolkenlos ---
Bamberg 239 1022.2 17.1 6.4 22.6 27 0.0 0 0 NW 6 10 wolkenlos ---
Hof 567 1022.1 16.7 6.7 20.1 25 0.0 0 0 NW 5 15 wolkenlos ---
Weiden 438 1021.8 18.0 6.4 22.1 26 0.1 0 0 -- 3 9 wolkenlos ---
Saarbrücken-Flh. 320 1022.2 18.8 11.0 22.5 33 0.0 0 0 SW 4 5 heiter ---
Karlsruhe-Rheinst. 116 1022.0 20.1 7.9 23.5 34 0.0 0 --- N 5 11 --- ---
Mannheim 96 1022.1 21.3 9.6 24.2 29 0.0 0 0 NW 4 17 wolkenlos ---
Stuttgart-Flh. 371 1021.6 18.7 6.4 21.5 30 0.0 0 0 N 9 15 heiter ---
Öhringen 276 1021.9 19.8 9.5 23.1 30 0.0 0 --- NO 8 13 wolkenlos ---
Nürnberg-Flh. 314 1021.7 18.9 5.4 22.1 29 0.0 0 0 NW 7 17 wolkenlos ---
Regensburg 366 1021.4 19.2 5.5 23.7 26 0.0 0 0 NW 3 7 wolkenlos ---
Straubing 351 1021.7 18.3 --- 21.8 25 0.0 --- 0 S 5 8 wolkenlos ---
Großer Arber 1436 ------ 9.2 8.1 13.9 35 0.0 0 43 O 9 15 wolkenlos ---
Lahr 155 1022.1 19.3 8.0 23.4 39 0.0 0 --- NO 4 8 wolkenlos ---
Freudenstadt 797 ------ 14.3 6.5 19.0 40 0.0 0 --- W 13 22 wolkenlos ---
Stötten 734 1021.8 16.0 9.2 18.7 32 0.0 0 0 NW 6 10 wolkenlos ---
Augsburg 462 1021.5 17.7 5.1 21.6 41 0.0 0 0 NW 6 12 wolkenlos ---
München-Flh. 444 1021.4 17.9 4.5 21.5 40 0.0 0 0 NO 4 8 wolkenlos ---
Fürstenzell 476 1021.7 17.2 7.9 20.6 23 0.0 0 0 S 4 6 wolkenlos ---
Feldberg/Schw. 1486 ------ 10.0 7.7 12.5 45 0.0 0 20 N 16 22 --- ---
Konstanz 443 1021.6 17.6 8.1 23.3 36 0.0 0 0 SO 4 6 wolkenlos ---
Kempten 705 1021.9 15.3 3.8 20.9 45 0.0 0 0 SO 3 13 wolkenlos ---
Oberstdorf 806 ------ 12.5 0.3 20.9 51 0.0 0 0 S 4 19 wolkenlos ---
Zugspitze 2960 ------ -2.4 -2.8 2.1 84 ---- --- --- NO 12 17   ---
Hohenpeißenberg 977 ------ 14.7 10.4 19.9 35 0.0 0 0 N 9 19 wolkenlos ---

 

  • Wetterzustand
  • Windrichtung und -geschwindigkeit
  • Luftdruck
  • relative Luftfeuchtigkeit
  • Sichtweite
  • Gesamtbedeckungsgrad
  • Niederschlag
  • Sonnenscheindauer

 Höhe:     m über NN
Luftd.:   auf Meereshöhe reduzierter Luftdruck in hPa
TEMP.:   Lufttemperatur in Grad Celsius
T-MIN:   Minimumtemperatur der Luft in 2m Höhe in Grad Celsius, von 18 UTC Vortag bis 06 UTC heute
T-MAX:  Maximumtemperatur der Luft in 2m Höhe in Grad Celsius, von 18 UTC Vortag bis 06 UTC heute
RR1:     Niederschlagsmenge, einstündig, mm ist gleich Liter pro
RR12:   Niederschlagsmenge, 12 stündig, 18 UTC Vortag bis 06 UTC heute in mm ist gleich Liter pro
SSS:     Gesamtschneehöhe
DD:      Windrichtung
FF:       Windgeschwindigkeit letztes 10-Minutenmittel in km/h
FX:       höchste Windspitze während der letzten Stunde in km/h
---:      Wert nicht vorhanden

 

2009-2020

Unwetterwarnungen

 

  Radarbild           

aktueller Radarfilm Deutschland

  Europa-Meteoalarm